sensor_id;sensor_type;location;lat;lon;timestamp;P1;durP1;ratioP1;P2;durP2;ratioP2
10847;SDS011;5477;48.806;9.154;2022-10-13T00:01:20;17.47;;;10.13;;
10847;SDS011;5477;48.806;9.154;2022-10-13T00:03:49;16.37;;;10.87;;
10847;SDS011;5477;48.806;9.154;2022-10-13T00:06:22;17.57;;;10.87;;
10847;SDS011;5477;48.806;9.154;2022-10-13T00:08:52;14.90;;;10.43;;
10847;SDS011;5477;48.806;9.154;2022-10-13T00:11:23;16.07;;;10.27;;
10847;SDS011;5477;48.806;9.154;2022-10-13T00:13:53;24.97;;;11.70;;
10847;SDS011;5477;48.806;9.154;2022-10-13T00:16:22;17.40;;;11.77;;
10847;SDS011;5477;48.806;9.154;2022-10-13T00:18:51;15.73;;;10.97;;
10847;SDS011;5477;48.806;9.154;2022-10-13T00:21:20;23.40;;;11.73;;
10847;SDS011;5477;48.806;9.154;2022-10-13T00:23:49;19.93;;;13.67;;
10847;SDS011;5477;48.806;9.154;2022-10-13T00:26:20;21.83;;;13.33;;
10847;SDS011;5477;48.806;9.154;2022-10-13T00:28:49;26.20;;;14.67;;
10847;SDS011;5477;48.806;9.154;2022-10-13T00:31:19;20.90;;;12.73;;
10847;SDS011;5477;48.806;9.154;2022-10-13T00:33:48;19.20;;;12.63;;
10847;SDS011;5477;48.806;9.154;2022-10-13T00:36:19;25.07;;;14.47;;
10847;SDS011;5477;48.806;9.154;2022-10-13T00:38:47;26.00;;;15.00;;
10847;SDS011;5477;48.806;9.154;2022-10-13T00:41:15;25.27;;;15.83;;
10847;SDS011;5477;48.806;9.154;2022-10-13T00:43:49;25.30;;;14.93;;
10847;SDS011;5477;48.806;9.154;2022-10-13T00:46:27;29.90;;;15.33;;
10847;SDS011;5477;48.806;9.154;2022-10-13T00:48:58;27.40;;;15.30;;
10847;SDS011;5477;48.806;9.154;2022-10-13T00:51:29;25.27;;;15.60;;
10847;SDS011;5477;48.806;9.154;2022-10-13T00:53:59;27.30;;;15.53;;
10847;SDS011;5477;48.806;9.154;2022-10-13T00:56:29;24.60;;;14.93;;
10847;SDS011;5477;48.806;9.154;2022-10-13T00:58:59;24.97;;;15.37;;
10847;SDS011;5477;48.806;9.154;2022-10-13T01:01:29;22.20;;;14.77;;
10847;SDS011;5477;48.806;9.154;2022-10-13T01:03:58;29.63;;;16.33;;
10847;SDS011;5477;48.806;9.154;2022-10-13T01:06:26;26.83;;;15.80;;
10847;SDS011;5477;48.806;9.154;2022-10-13T01:08:54;25.90;;;15.73;;
10847;SDS011;5477;48.806;9.154;2022-10-13T01:11:30;28.97;;;15.70;;
10847;SDS011;5477;48.806;9.154;2022-10-13T01:14:09;27.70;;;14.97;;
10847;SDS011;5477;48.806;9.154;2022-10-13T01:16:47;25.30;;;14.57;;
10847;SDS011;5477;48.806;9.154;2022-10-13T01:19:33;22.50;;;14.63;;
10847;SDS011;5477;48.806;9.154;2022-10-13T01:22:20;22.90;;;14.83;;
10847;SDS011;5477;48.806;9.154;2022-10-13T01:25:07;21.13;;;14.30;;
10847;SDS011;5477;48.806;9.154;2022-10-13T01:27:48;25.07;;;15.63;;
10847;SDS011;5477;48.806;9.154;2022-10-13T01:30:30;22.67;;;13.80;;
10847;SDS011;5477;48.806;9.154;2022-10-13T01:33:10;22.87;;;13.17;;
10847;SDS011;5477;48.806;9.154;2022-10-13T01:35:49;23.43;;;13.87;;
10847;SDS011;5477;48.806;9.154;2022-10-13T01:38:24;22.40;;;13.77;;
10847;SDS011;5477;48.806;9.154;2022-10-13T01:41:01;22.90;;;13.77;;
10847;SDS011;5477;48.806;9.154;2022-10-13T01:43:37;25.40;;;13.53;;
10847;SDS011;5477;48.806;9.154;2022-10-13T01:46:12;22.03;;;14.77;;
10847;SDS011;5477;48.806;9.154;2022-10-13T01:48:44;27.10;;;13.73;;
10847;SDS011;5477;48.806;9.154;2022-10-13T01:51:13;22.07;;;13.03;;
10847;SDS011;5477;48.806;9.154;2022-10-13T01:53:45;23.90;;;14.40;;
10847;SDS011;5477;48.806;9.154;2022-10-13T01:56:14;21.63;;;14.40;;
10847;SDS011;5477;48.806;9.154;2022-10-13T01:58:43;24.23;;;14.43;;
10847;SDS011;5477;48.806;9.154;2022-10-13T02:01:21;25.67;;;15.23;;
10847;SDS011;5477;48.806;9.154;2022-10-13T02:04:00;20.53;;;13.67;;
10847;SDS011;5477;48.806;9.154;2022-10-13T02:06:43;26.90;;;14.30;;
10847;SDS011;5477;48.806;9.154;2022-10-13T02:09:17;24.93;;;13.70;;
10847;SDS011;5477;48.806;9.154;2022-10-13T02:11:50;25.63;;;14.57;;
10847;SDS011;5477;48.806;9.154;2022-10-13T02:14:28;21.97;;;14.30;;
10847;SDS011;5477;48.806;9.154;2022-10-13T02:17:01;24.00;;;13.67;;
10847;SDS011;5477;48.806;9.154;2022-10-13T02:19:33;24.30;;;13.33;;
10847;SDS011;5477;48.806;9.154;2022-10-13T02:22:03;26.20;;;15.23;;
10847;SDS011;5477;48.806;9.154;2022-10-13T02:24:32;24.40;;;15.03;;
10847;SDS011;5477;48.806;9.154;2022-10-13T02:27:01;24.30;;;14.33;;
10847;SDS011;5477;48.806;9.154;2022-10-13T02:29:31;21.90;;;13.60;;
10847;SDS011;5477;48.806;9.154;2022-10-13T02:32:00;26.27;;;13.87;;
10847;SDS011;5477;48.806;9.154;2022-10-13T02:34:28;25.00;;;14.23;;
10847;SDS011;5477;48.806;9.154;2022-10-13T02:36:56;25.97;;;13.97;;
10847;SDS011;5477;48.806;9.154;2022-10-13T02:39:24;27.47;;;14.03;;
10847;SDS011;5477;48.806;9.154;2022-10-13T02:41:52;25.37;;;13.83;;
10847;SDS011;5477;48.806;9.154;2022-10-13T02:44:20;19.60;;;13.23;;
10847;SDS011;5477;48.806;9.154;2022-10-13T02:46:50;21.53;;;14.20;;
10847;SDS011;5477;48.806;9.154;2022-10-13T02:49:19;24.97;;;14.17;;
10847;SDS011;5477;48.806;9.154;2022-10-13T02:51:47;22.23;;;13.40;;
10847;SDS011;5477;48.806;9.154;2022-10-13T02:54:15;21.40;;;13.73;;
10847;SDS011;5477;48.806;9.154;2022-10-13T02:56:43;21.17;;;13.80;;
10847;SDS011;5477;48.806;9.154;2022-10-13T02:59:10;23.20;;;13.87;;
10847;SDS011;5477;48.806;9.154;2022-10-13T03:01:39;23.20;;;14.20;;
10847;SDS011;5477;48.806;9.154;2022-10-13T03:04:07;24.70;;;15.30;;
10847;SDS011;5477;48.806;9.154;2022-10-13T03:06:37;24.00;;;13.23;;
10847;SDS011;5477;48.806;9.154;2022-10-13T03:09:06;20.80;;;13.37;;
10847;SDS011;5477;48.806;9.154;2022-10-13T03:11:34;21.40;;;13.67;;
10847;SDS011;5477;48.806;9.154;2022-10-13T03:14:02;23.67;;;13.27;;
10847;SDS011;5477;48.806;9.154;2022-10-13T03:16:30;20.03;;;13.60;;
10847;SDS011;5477;48.806;9.154;2022-10-13T03:18:57;25.03;;;13.90;;
10847;SDS011;5477;48.806;9.154;2022-10-13T03:21:25;21.63;;;13.10;;
10847;SDS011;5477;48.806;9.154;2022-10-13T03:23:55;25.13;;;14.93;;
10847;SDS011;5477;48.806;9.154;2022-10-13T03:26:24;20.83;;;14.23;;
10847;SDS011;5477;48.806;9.154;2022-10-13T03:28:52;22.50;;;13.80;;
10847;SDS011;5477;48.806;9.154;2022-10-13T03:31:20;22.87;;;13.73;;
10847;SDS011;5477;48.806;9.154;2022-10-13T03:33:47;22.60;;;13.77;;
10847;SDS011;5477;48.806;9.154;2022-10-13T03:36:16;27.10;;;14.30;;
10847;SDS011;5477;48.806;9.154;2022-10-13T03:38:47;23.57;;;13.37;;
10847;SDS011;5477;48.806;9.154;2022-10-13T03:41:19;20.30;;;12.83;;
10847;SDS011;5477;48.806;9.154;2022-10-13T03:43:50;25.73;;;13.33;;
10847;SDS011;5477;48.806;9.154;2022-10-13T03:46:18;24.13;;;13.60;;
10847;SDS011;5477;48.806;9.154;2022-10-13T03:48:47;19.90;;;13.57;;
10847;SDS011;5477;48.806;9.154;2022-10-13T03:51:15;19.77;;;13.43;;
10847;SDS011;5477;48.806;9.154;2022-10-13T03:53:47;20.53;;;13.47;;
10847;SDS011;5477;48.806;9.154;2022-10-13T03:56:16;21.07;;;13.57;;
10847;SDS011;5477;48.806;9.154;2022-10-13T03:58:53;21.87;;;13.10;;
10847;SDS011;5477;48.806;9.154;2022-10-13T04:01:24;25.53;;;13.70;;
10847;SDS011;5477;48.806;9.154;2022-10-13T04:03:53;23.30;;;13.53;;
10847;SDS011;5477;48.806;9.154;2022-10-13T04:06:22;21.03;;;13.13;;
10847;SDS011;5477;48.806;9.154;2022-10-13T04:08:51;23.50;;;14.10;;
10847;SDS011;5477;48.806;9.154;2022-10-13T04:11:20;19.20;;;12.93;;
10847;SDS011;5477;48.806;9.154;2022-10-13T04:13:55;22.97;;;13.90;;
10847;SDS011;5477;48.806;9.154;2022-10-13T04:16:25;23.90;;;13.80;;
10847;SDS011;5477;48.806;9.154;2022-10-13T04:18:55;22.30;;;13.13;;
10847;SDS011;5477;48.806;9.154;2022-10-13T04:21:25;21.70;;;14.70;;
10847;SDS011;5477;48.806;9.154;2022-10-13T04:23:54;19.80;;;14.40;;
10847;SDS011;5477;48.806;9.154;2022-10-13T04:26:24;18.93;;;13.57;;
10847;SDS011;5477;48.806;9.154;2022-10-13T04:28:55;26.30;;;14.00;;
10847;SDS011;5477;48.806;9.154;2022-10-13T04:31:24;21.23;;;13.07;;
10847;SDS011;5477;48.806;9.154;2022-10-13T04:33:55;19.50;;;12.90;;
10847;SDS011;5477;48.806;9.154;2022-10-13T04:36:23;20.33;;;13.67;;
10847;SDS011;5477;48.806;9.154;2022-10-13T04:38:52;22.53;;;13.07;;
10847;SDS011;5477;48.806;9.154;2022-10-13T04:41:21;20.93;;;13.57;;
10847;SDS011;5477;48.806;9.154;2022-10-13T04:43:49;21.80;;;14.07;;
10847;SDS011;5477;48.806;9.154;2022-10-13T04:46:21;25.43;;;13.83;;
10847;SDS011;5477;48.806;9.154;2022-10-13T04:48:52;17.53;;;12.70;;
10847;SDS011;5477;48.806;9.154;2022-10-13T04:51:27;22.13;;;13.87;;
10847;SDS011;5477;48.806;9.154;2022-10-13T04:53:55;20.87;;;13.30;;
10847;SDS011;5477;48.806;9.154;2022-10-13T04:56:24;21.80;;;12.80;;
10847;SDS011;5477;48.806;9.154;2022-10-13T04:58:52;23.63;;;14.20;;
10847;SDS011;5477;48.806;9.154;2022-10-13T05:01:22;23.57;;;14.07;;
10847;SDS011;5477;48.806;9.154;2022-10-13T05:03:52;17.93;;;12.83;;
10847;SDS011;5477;48.806;9.154;2022-10-13T05:06:21;20.77;;;13.20;;
10847;SDS011;5477;48.806;9.154;2022-10-13T05:08:53;23.27;;;14.03;;
10847;SDS011;5477;48.806;9.154;2022-10-13T05:11:22;20.47;;;13.27;;
10847;SDS011;5477;48.806;9.154;2022-10-13T05:13:52;21.80;;;12.83;;
10847;SDS011;5477;48.806;9.154;2022-10-13T05:16:20;19.83;;;13.37;;
10847;SDS011;5477;48.806;9.154;2022-10-13T05:18:51;27.73;;;14.93;;
10847;SDS011;5477;48.806;9.154;2022-10-13T05:21:20;21.77;;;14.17;;
10847;SDS011;5477;48.806;9.154;2022-10-13T05:23:50;20.60;;;14.50;;
10847;SDS011;5477;48.806;9.154;2022-10-13T05:26:21;22.47;;;13.53;;
10847;SDS011;5477;48.806;9.154;2022-10-13T05:28:53;21.57;;;13.73;;
10847;SDS011;5477;48.806;9.154;2022-10-13T05:31:25;19.53;;;12.43;;
10847;SDS011;5477;48.806;9.154;2022-10-13T05:33:55;23.33;;;12.87;;
10847;SDS011;5477;48.806;9.154;2022-10-13T05:36:24;22.23;;;12.37;;
10847;SDS011;5477;48.806;9.154;2022-10-13T05:38:56;22.20;;;12.67;;
10847;SDS011;5477;48.806;9.154;2022-10-13T05:41:25;24.17;;;13.60;;
10847;SDS011;5477;48.806;9.154;2022-10-13T05:43:56;24.17;;;13.83;;
10847;SDS011;5477;48.806;9.154;2022-10-13T05:46:27;22.57;;;13.33;;
10847;SDS011;5477;48.806;9.154;2022-10-13T05:48:56;22.63;;;13.97;;
10847;SDS011;5477;48.806;9.154;2022-10-13T05:51:25;20.70;;;13.60;;
10847;SDS011;5477;48.806;9.154;2022-10-13T05:53:58;22.03;;;14.13;;
10847;SDS011;5477;48.806;9.154;2022-10-13T05:56:31;27.73;;;13.67;;
10847;SDS011;5477;48.806;9.154;2022-10-13T05:59:05;25.87;;;15.20;;
10847;SDS011;5477;48.806;9.154;2022-10-13T06:01:37;28.57;;;14.97;;
10847;SDS011;5477;48.806;9.154;2022-10-13T06:04:07;23.63;;;14.83;;
10847;SDS011;5477;48.806;9.154;2022-10-13T06:06:39;24.03;;;14.90;;
10847;SDS011;5477;48.806;9.154;2022-10-13T06:09:07;23.47;;;15.50;;
10847;SDS011;5477;48.806;9.154;2022-10-13T06:11:35;21.83;;;14.53;;
10847;SDS011;5477;48.806;9.154;2022-10-13T06:14:03;25.00;;;15.47;;
10847;SDS011;5477;48.806;9.154;2022-10-13T06:16:31;24.17;;;15.57;;
10847;SDS011;5477;48.806;9.154;2022-10-13T06:19:02;27.23;;;15.30;;
10847;SDS011;5477;48.806;9.154;2022-10-13T06:21:33;24.43;;;15.37;;
10847;SDS011;5477;48.806;9.154;2022-10-13T06:24:01;25.57;;;15.20;;
10847;SDS011;5477;48.806;9.154;2022-10-13T06:26:29;26.00;;;16.20;;
10847;SDS011;5477;48.806;9.154;2022-10-13T06:28:57;27.07;;;16.07;;
10847;SDS011;5477;48.806;9.154;2022-10-13T06:31:29;27.37;;;16.10;;
10847;SDS011;5477;48.806;9.154;2022-10-13T06:33:57;27.30;;;15.20;;
10847;SDS011;5477;48.806;9.154;2022-10-13T06:36:28;29.13;;;17.37;;
10847;SDS011;5477;48.806;9.154;2022-10-13T06:38:56;28.60;;;16.60;;
10847;SDS011;5477;48.806;9.154;2022-10-13T06:41:24;27.53;;;16.70;;
10847;SDS011;5477;48.806;9.154;2022-10-13T06:43:52;27.43;;;16.20;;
10847;SDS011;5477;48.806;9.154;2022-10-13T06:46:21;27.40;;;16.13;;
10847;SDS011;5477;48.806;9.154;2022-10-13T06:48:49;29.00;;;16.40;;
10847;SDS011;5477;48.806;9.154;2022-10-13T06:51:18;26.23;;;15.80;;
10847;SDS011;5477;48.806;9.154;2022-10-13T06:53:49;31.27;;;16.73;;
10847;SDS011;5477;48.806;9.154;2022-10-13T06:56:21;27.87;;;16.43;;
10847;SDS011;5477;48.806;9.154;2022-10-13T06:58:49;29.53;;;17.00;;
10847;SDS011;5477;48.806;9.154;2022-10-13T07:01:17;29.43;;;16.17;;
10847;SDS011;5477;48.806;9.154;2022-10-13T07:03:47;23.73;;;15.77;;
10847;SDS011;5477;48.806;9.154;2022-10-13T07:06:18;27.27;;;16.10;;
10847;SDS011;5477;48.806;9.154;2022-10-13T07:08:50;26.10;;;15.30;;
10847;SDS011;5477;48.806;9.154;2022-10-13T07:11:18;25.83;;;15.70;;
10847;SDS011;5477;48.806;9.154;2022-10-13T07:13:49;23.20;;;14.43;;
10847;SDS011;5477;48.806;9.154;2022-10-13T07:16:20;23.83;;;14.47;;
10847;SDS011;5477;48.806;9.154;2022-10-13T07:18:48;22.33;;;14.70;;
10847;SDS011;5477;48.806;9.154;2022-10-13T07:21:16;24.27;;;14.87;;
10847;SDS011;5477;48.806;9.154;2022-10-13T07:23:44;25.73;;;15.07;;
10847;SDS011;5477;48.806;9.154;2022-10-13T07:26:14;20.50;;;14.03;;
10847;SDS011;5477;48.806;9.154;2022-10-13T07:28:43;24.60;;;14.77;;
10847;SDS011;5477;48.806;9.154;2022-10-13T07:31:12;22.33;;;13.97;;
10847;SDS011;5477;48.806;9.154;2022-10-13T07:33:41;24.27;;;14.63;;
10847;SDS011;5477;48.806;9.154;2022-10-13T07:36:11;25.80;;;14.57;;
10847;SDS011;5477;48.806;9.154;2022-10-13T07:38:40;19.73;;;13.57;;
10847;SDS011;5477;48.806;9.154;2022-10-13T07:41:08;24.67;;;13.20;;
10847;SDS011;5477;48.806;9.154;2022-10-13T07:43:39;23.00;;;14.40;;
10847;SDS011;5477;48.806;9.154;2022-10-13T07:46:07;22.13;;;12.60;;
10847;SDS011;5477;48.806;9.154;2022-10-13T07:48:37;20.67;;;12.60;;
10847;SDS011;5477;48.806;9.154;2022-10-13T07:51:05;23.40;;;12.60;;
10847;SDS011;5477;48.806;9.154;2022-10-13T07:53:35;20.67;;;12.93;;
10847;SDS011;5477;48.806;9.154;2022-10-13T07:56:04;22.63;;;12.40;;
10847;SDS011;5477;48.806;9.154;2022-10-13T07:58:35;16.37;;;11.57;;
10847;SDS011;5477;48.806;9.154;2022-10-13T08:01:06;23.23;;;11.93;;
10847;SDS011;5477;48.806;9.154;2022-10-13T08:03:36;15.90;;;10.20;;
10847;SDS011;5477;48.806;9.154;2022-10-13T08:06:15;24.90;;;11.17;;
10847;SDS011;5477;48.806;9.154;2022-10-13T08:08:43;16.97;;;10.23;;
10847;SDS011;5477;48.806;9.154;2022-10-13T08:11:15;16.23;;;10.30;;
10847;SDS011;5477;48.806;9.154;2022-10-13T08:13:46;19.53;;;9.97;;
10847;SDS011;5477;48.806;9.154;2022-10-13T08:16:20;18.57;;;10.27;;
10847;SDS011;5477;48.806;9.154;2022-10-13T08:18:48;14.67;;;10.20;;
10847;SDS011;5477;48.806;9.154;2022-10-13T08:21:17;15.47;;;10.03;;
10847;SDS011;5477;48.806;9.154;2022-10-13T08:24:08;17.17;;;9.80;;
10847;SDS011;5477;48.806;9.154;2022-10-13T08:26:38;14.50;;;9.60;;
10847;SDS011;5477;48.806;9.154;2022-10-13T08:29:07;16.73;;;9.83;;
10847;SDS011;5477;48.806;9.154;2022-10-13T08:31:48;15.43;;;10.03;;
10847;SDS011;5477;48.806;9.154;2022-10-13T08:34:16;17.37;;;9.87;;
10847;SDS011;5477;48.806;9.154;2022-10-13T08:36:44;14.37;;;10.17;;
10847;SDS011;5477;48.806;9.154;2022-10-13T08:39:12;14.10;;;9.07;;
10847;SDS011;5477;48.806;9.154;2022-10-13T08:41:41;16.57;;;9.23;;
10847;SDS011;5477;48.806;9.154;2022-10-13T08:44:13;15.03;;;9.43;;
10847;SDS011;5477;48.806;9.154;2022-10-13T08:47:08;14.90;;;8.33;;
10847;SDS011;5477;48.806;9.154;2022-10-13T08:49:41;13.63;;;8.07;;
10847;SDS011;5477;48.806;9.154;2022-10-13T08:52:12;15.47;;;8.50;;
10847;SDS011;5477;48.806;9.154;2022-10-13T08:54:45;12.40;;;8.40;;
10847;SDS011;5477;48.806;9.154;2022-10-13T08:57:13;16.37;;;8.30;;
10847;SDS011;5477;48.806;9.154;2022-10-13T08:59:41;14.73;;;8.10;;
10847;SDS011;5477;48.806;9.154;2022-10-13T09:02:12;12.50;;;8.03;;
10847;SDS011;5477;48.806;9.154;2022-10-13T09:04:42;12.33;;;7.73;;
10847;SDS011;5477;48.806;9.154;2022-10-13T09:07:15;14.13;;;7.83;;
10847;SDS011;5477;48.806;9.154;2022-10-13T09:09:48;13.93;;;7.60;;
10847;SDS011;5477;48.806;9.154;2022-10-13T09:12:18;12.07;;;7.50;;
10847;SDS011;5477;48.806;9.154;2022-10-13T09:14:59;13.53;;;7.17;;
10847;SDS011;5477;48.806;9.154;2022-10-13T09:17:32;11.57;;;6.90;;
10847;SDS011;5477;48.806;9.154;2022-10-13T09:20:04;13.20;;;7.10;;
10847;SDS011;5477;48.806;9.154;2022-10-13T09:22:34;12.60;;;6.80;;
10847;SDS011;5477;48.806;9.154;2022-10-13T09:25:08;11.27;;;6.60;;
10847;SDS011;5477;48.806;9.154;2022-10-13T09:27:46;12.00;;;6.97;;
10847;SDS011;5477;48.806;9.154;2022-10-13T09:30:22;12.43;;;7.30;;
10847;SDS011;5477;48.806;9.154;2022-10-13T09:36:06;14.43;;;7.33;;
10847;SDS011;5477;48.806;9.154;2022-10-13T09:38:37;12.43;;;7.67;;
10847;SDS011;5477;48.806;9.154;2022-10-13T09:41:15;14.33;;;6.90;;
10847;SDS011;5477;48.806;9.154;2022-10-13T09:44:07;10.37;;;6.90;;
10847;SDS011;5477;48.806;9.154;2022-10-13T09:46:38;10.07;;;6.40;;
10847;SDS011;5477;48.806;9.154;2022-10-13T09:49:24;10.90;;;6.40;;
10847;SDS011;5477;48.806;9.154;2022-10-13T09:52:04;9.30;;;5.87;;
10847;SDS011;5477;48.806;9.154;2022-10-13T09:54:42;13.90;;;6.30;;
10847;SDS011;5477;48.806;9.154;2022-10-13T09:57:23;17.43;;;7.03;;
10847;SDS011;5477;48.806;9.154;2022-10-13T09:59:59;11.93;;;6.80;;
10847;SDS011;5477;48.806;9.154;2022-10-13T10:02:43;13.23;;;6.40;;
10847;SDS011;5477;48.806;9.154;2022-10-13T10:05:18;12.93;;;6.53;;
10847;SDS011;5477;48.806;9.154;2022-10-13T10:07:55;16.83;;;7.20;;
10847;SDS011;5477;48.806;9.154;2022-10-13T10:10:29;11.10;;;6.27;;
10847;SDS011;5477;48.806;9.154;2022-10-13T10:13:07;9.90;;;6.43;;
10847;SDS011;5477;48.806;9.154;2022-10-13T10:15:38;13.17;;;7.07;;
10847;SDS011;5477;48.806;9.154;2022-10-13T10:18:15;10.87;;;6.07;;
10847;SDS011;5477;48.806;9.154;2022-10-13T10:23:41;12.47;;;6.07;;
10847;SDS011;5477;48.806;9.154;2022-10-13T10:26:15;10.97;;;5.63;;
10847;SDS011;5477;48.806;9.154;2022-10-13T10:29:00;12.70;;;5.97;;
10847;SDS011;5477;48.806;9.154;2022-10-13T10:31:42;12.77;;;6.00;;
10847;SDS011;5477;48.806;9.154;2022-10-13T10:34:26;11.03;;;6.30;;
10847;SDS011;5477;48.806;9.154;2022-10-13T10:37:04;10.50;;;6.03;;
10847;SDS011;5477;48.806;9.154;2022-10-13T10:39:42;9.77;;;5.57;;
10847;SDS011;5477;48.806;9.154;2022-10-13T10:42:19;8.33;;;5.37;;
10847;SDS011;5477;48.806;9.154;2022-10-13T10:45:02;9.03;;;5.43;;
10847;SDS011;5477;48.806;9.154;2022-10-13T10:47:33;12.60;;;5.40;;
10847;SDS011;5477;48.806;9.154;2022-10-13T10:50:06;10.17;;;5.17;;
10847;SDS011;5477;48.806;9.154;2022-10-13T10:52:41;9.90;;;5.57;;
10847;SDS011;5477;48.806;9.154;2022-10-13T10:55:18;11.90;;;5.10;;
10847;SDS011;5477;48.806;9.154;2022-10-13T10:57:50;8.10;;;5.33;;
10847;SDS011;5477;48.806;9.154;2022-10-13T11:00:26;9.17;;;5.00;;
10847;SDS011;5477;48.806;9.154;2022-10-13T11:02:58;11.10;;;5.50;;
10847;SDS011;5477;48.806;9.154;2022-10-13T11:05:30;9.30;;;5.13;;
10847;SDS011;5477;48.806;9.154;2022-10-13T11:08:39;13.30;;;6.27;;
10847;SDS011;5477;48.806;9.154;2022-10-13T11:14:20;10.63;;;5.23;;
10847;SDS011;5477;48.806;9.154;2022-10-13T11:17:13;10.50;;;5.87;;
10847;SDS011;5477;48.806;9.154;2022-10-13T11:19:44;10.83;;;5.20;;
10847;SDS011;5477;48.806;9.154;2022-10-13T11:22:15;9.93;;;5.83;;
10847;SDS011;5477;48.806;9.154;2022-10-13T11:24:54;12.80;;;5.70;;
10847;SDS011;5477;48.806;9.154;2022-10-13T11:27:41;8.60;;;5.13;;
10847;SDS011;5477;48.806;9.154;2022-10-13T11:36:37;9.13;;;5.30;;
10847;SDS011;5477;48.806;9.154;2022-10-13T11:42:31;11.53;;;5.47;;
10847;SDS011;5477;48.806;9.154;2022-10-13T11:45:28;10.03;;;5.17;;
10847;SDS011;5477;48.806;9.154;2022-10-13T11:51:20;13.77;;;8.60;;
10847;SDS011;5477;48.806;9.154;2022-10-13T11:53:58;10.27;;;5.20;;
10847;SDS011;5477;48.806;9.154;2022-10-13T11:56:33;9.20;;;5.60;;
10847;SDS011;5477;48.806;9.154;2022-10-13T11:59:16;9.73;;;4.90;;
10847;SDS011;5477;48.806;9.154;2022-10-13T12:01:51;9.27;;;4.47;;
10847;SDS011;5477;48.806;9.154;2022-10-13T12:04:21;7.20;;;4.47;;
10847;SDS011;5477;48.806;9.154;2022-10-13T12:06:58;6.03;;;4.50;;
10847;SDS011;5477;48.806;9.154;2022-10-13T12:09:27;12.30;;;5.10;;
10847;SDS011;5477;48.806;9.154;2022-10-13T12:11:59;8.80;;;4.33;;
10847;SDS011;5477;48.806;9.154;2022-10-13T12:14:31;8.77;;;4.57;;
10847;SDS011;5477;48.806;9.154;2022-10-13T12:17:18;8.33;;;4.70;;
10847;SDS011;5477;48.806;9.154;2022-10-13T12:19:49;9.10;;;5.07;;
10847;SDS011;5477;48.806;9.154;2022-10-13T12:22:18;7.50;;;5.07;;
10847;SDS011;5477;48.806;9.154;2022-10-13T12:24:55;9.17;;;4.93;;
10847;SDS011;5477;48.806;9.154;2022-10-13T12:27:25;7.07;;;4.50;;
10847;SDS011;5477;48.806;9.154;2022-10-13T12:29:55;8.00;;;4.90;;
10847;SDS011;5477;48.806;9.154;2022-10-13T12:32:23;7.97;;;4.73;;
10847;SDS011;5477;48.806;9.154;2022-10-13T12:34:52;8.63;;;4.63;;
10847;SDS011;5477;48.806;9.154;2022-10-13T12:37:26;6.57;;;4.37;;
10847;SDS011;5477;48.806;9.154;2022-10-13T12:39:56;9.43;;;4.10;;
10847;SDS011;5477;48.806;9.154;2022-10-13T12:42:26;8.03;;;4.40;;
10847;SDS011;5477;48.806;9.154;2022-10-13T12:44:58;10.30;;;4.83;;
10847;SDS011;5477;48.806;9.154;2022-10-13T12:47:39;7.97;;;4.50;;
10847;SDS011;5477;48.806;9.154;2022-10-13T12:53:11;7.43;;;4.03;;
10847;SDS011;5477;48.806;9.154;2022-10-13T12:55:45;10.93;;;4.20;;
10847;SDS011;5477;48.806;9.154;2022-10-13T12:58:21;6.03;;;4.23;;
10847;SDS011;5477;48.806;9.154;2022-10-13T13:00:56;7.43;;;3.80;;
10847;SDS011;5477;48.806;9.154;2022-10-13T13:03:29;9.90;;;4.07;;
10847;SDS011;5477;48.806;9.154;2022-10-13T13:06:07;7.73;;;4.10;;
10847;SDS011;5477;48.806;9.154;2022-10-13T13:08:45;8.20;;;4.07;;
10847;SDS011;5477;48.806;9.154;2022-10-13T13:11:19;6.43;;;3.60;;
10847;SDS011;5477;48.806;9.154;2022-10-13T13:13:50;7.40;;;4.00;;
10847;SDS011;5477;48.806;9.154;2022-10-13T13:16:40;5.33;;;3.57;;
10847;SDS011;5477;48.806;9.154;2022-10-13T13:19:19;6.43;;;4.17;;
10847;SDS011;5477;48.806;9.154;2022-10-13T13:21:48;7.97;;;4.37;;
10847;SDS011;5477;48.806;9.154;2022-10-13T13:24:17;5.27;;;4.00;;
10847;SDS011;5477;48.806;9.154;2022-10-13T13:27:18;6.20;;;3.60;;
10847;SDS011;5477;48.806;9.154;2022-10-13T13:29:50;7.60;;;3.80;;
10847;SDS011;5477;48.806;9.154;2022-10-13T13:32:21;11.57;;;3.83;;
10847;SDS011;5477;48.806;9.154;2022-10-13T13:34:50;6.47;;;3.97;;
10847;SDS011;5477;48.806;9.154;2022-10-13T13:37:22;7.30;;;4.47;;
10847;SDS011;5477;48.806;9.154;2022-10-13T13:39:53;8.53;;;4.03;;
10847;SDS011;5477;48.806;9.154;2022-10-13T13:42:21;9.27;;;4.70;;
10847;SDS011;5477;48.806;9.154;2022-10-13T13:44:49;9.63;;;4.60;;
10847;SDS011;5477;48.806;9.154;2022-10-13T13:47:18;7.27;;;4.70;;
10847;SDS011;5477;48.806;9.154;2022-10-13T13:49:49;7.47;;;4.37;;
10847;SDS011;5477;48.806;9.154;2022-10-13T13:52:19;7.50;;;4.70;;
10847;SDS011;5477;48.806;9.154;2022-10-13T13:54:48;7.23;;;4.77;;
10847;SDS011;5477;48.806;9.154;2022-10-13T13:57:17;9.07;;;4.00;;
10847;SDS011;5477;48.806;9.154;2022-10-13T13:59:46;7.93;;;5.80;;
10847;SDS011;5477;48.806;9.154;2022-10-13T14:02:15;9.33;;;5.30;;
10847;SDS011;5477;48.806;9.154;2022-10-13T14:04:45;8.30;;;4.77;;
10847;SDS011;5477;48.806;9.154;2022-10-13T14:07:13;8.23;;;4.63;;
10847;SDS011;5477;48.806;9.154;2022-10-13T14:09:45;9.20;;;4.50;;
10847;SDS011;5477;48.806;9.154;2022-10-13T14:12:17;7.53;;;4.23;;
10847;SDS011;5477;48.806;9.154;2022-10-13T14:14:46;7.57;;;3.80;;
10847;SDS011;5477;48.806;9.154;2022-10-13T14:17:14;5.97;;;3.90;;
10847;SDS011;5477;48.806;9.154;2022-10-13T14:19:42;8.20;;;4.30;;
10847;SDS011;5477;48.806;9.154;2022-10-13T14:22:11;9.97;;;3.97;;
10847;SDS011;5477;48.806;9.154;2022-10-13T14:24:39;13.70;;;4.63;;
10847;SDS011;5477;48.806;9.154;2022-10-13T14:27:09;7.57;;;5.00;;
10847;SDS011;5477;48.806;9.154;2022-10-13T14:29:37;9.27;;;5.90;;
10847;SDS011;5477;48.806;9.154;2022-10-13T14:32:05;10.77;;;4.70;;
10847;SDS011;5477;48.806;9.154;2022-10-13T14:34:33;9.13;;;4.53;;
10847;SDS011;5477;48.806;9.154;2022-10-13T14:37:01;9.73;;;4.90;;
10847;SDS011;5477;48.806;9.154;2022-10-13T14:39:31;8.00;;;4.90;;
10847;SDS011;5477;48.806;9.154;2022-10-13T14:41:59;10.93;;;5.17;;
10847;SDS011;5477;48.806;9.154;2022-10-13T14:44:31;10.70;;;6.30;;
10847;SDS011;5477;48.806;9.154;2022-10-13T14:46:59;10.87;;;5.10;;
10847;SDS011;5477;48.806;9.154;2022-10-13T14:49:27;8.60;;;4.83;;
10847;SDS011;5477;48.806;9.154;2022-10-13T14:51:55;10.70;;;6.10;;
10847;SDS011;5477;48.806;9.154;2022-10-13T14:54:24;14.10;;;5.50;;
10847;SDS011;5477;48.806;9.154;2022-10-13T14:56:54;10.80;;;5.70;;
10847;SDS011;5477;48.806;9.154;2022-10-13T14:59:21;12.93;;;6.63;;
10847;SDS011;5477;48.806;9.154;2022-10-13T15:01:49;9.77;;;6.13;;
10847;SDS011;5477;48.806;9.154;2022-10-13T15:04:17;12.07;;;6.27;;
10847;SDS011;5477;48.806;9.154;2022-10-13T15:06:45;12.00;;;6.20;;
10847;SDS011;5477;48.806;9.154;2022-10-13T15:09:13;11.70;;;6.87;;
10847;SDS011;5477;48.806;9.154;2022-10-13T15:11:41;11.63;;;6.73;;
10847;SDS011;5477;48.806;9.154;2022-10-13T15:14:12;8.10;;;6.10;;
10847;SDS011;5477;48.806;9.154;2022-10-13T15:16:40;14.40;;;7.73;;
10847;SDS011;5477;48.806;9.154;2022-10-13T15:19:08;12.87;;;6.87;;
10847;SDS011;5477;48.806;9.154;2022-10-13T15:21:36;11.30;;;7.30;;
10847;SDS011;5477;48.806;9.154;2022-10-13T15:24:05;10.13;;;6.53;;
10847;SDS011;5477;48.806;9.154;2022-10-13T15:26:33;14.23;;;7.73;;
10847;SDS011;5477;48.806;9.154;2022-10-13T15:29:02;12.73;;;7.57;;
10847;SDS011;5477;48.806;9.154;2022-10-13T15:31:31;13.50;;;8.07;;
10847;SDS011;5477;48.806;9.154;2022-10-13T15:33:59;15.00;;;7.27;;
10847;SDS011;5477;48.806;9.154;2022-10-13T15:36:27;13.93;;;7.47;;